الصفحة الرئيسية
METAR-TAF:

METAR-TAF

مطار :

Derby, أستراليا

دائرة عرض: 17-34-53S, خط طول: 123-49-42E, ارتفاع: 91 متر

مراقبة الطقس الحالي

تاريخ ووقت الإصدار 18 دقيقة قبل الساعة 15:00UTC
ريح 4 عقدة من الجنوب/الجنوب الغربي
درجة الحرارة 27°درجة مئوية
الرطوبة 89%
ضغط 1010 hPa
الرؤية 10 كم أو أكثر

METAR: YCIN 111500Z AUTO 20004KT 9999 // NCD 27/25 Q1010 RF00.0/000.0

زمن: 23:18 (15:18 UTC)

توقعات

تاريخ ووقت الإصدار 2ساعات و 33 دقيقة قبل الساعة 12:45UTC
التوقعات صالحة من11 الساعة 14 UTC إلى 12 الساعة 02 UTC
ريح 8 عقدة من الغرب
الرؤية 10 كم أو أكثر
الغيوم لا تقل 1500 م ولا وجود لمزنة ركامية السحاب الأسود
من 11 الساعة 1900 UTC
ريح 5 عقدة من الجنوب/الجنوب الشرقي
الرؤية 10 كم أو أكثر
غيوم متفرقة على ارتفاع 1000 قدم
من 12 الساعة 0100 UTC
ريح 5 عقدةمن اتجاهات متغيرة
الرؤية 10 كم أو أكثر
الغيوم لا تقل 1500 م ولا وجود لمزنة ركامية السحاب الأسود

TAF: YCIN 111245Z 1114/1202 28008KT CAVOK FM111900 16005KT 9999 SCT010 FM120100 VRB05KT CAVOK

أرصاد الطقس والتوقعات من أكثر من 4000 مطار (تقارير الطقس للمطار METAR والتنبؤ بالطقس بالمطارTAF).

المحطات المتاحة هي النقط الصفراء والحمراء على الخريطة.

حرك المؤشر فوق النقطة لمعرفة اسم المحطة.

ثم انقر لمعرفة أرصاد وتوقعات الطقس.

لتغيير الخارطة: اضغط على الأزرار الخضراء مع رمز الصليب الأسود للتكبير. على الزر الأخضر مع شرطة للتصغير، أو على الأسهم الخضراء للخرائط المجاورة.


METAR-TAF: